Kezdőlap
METAR-TAF:

METAR-TAF

Repülőterek :

Washington, Indiana, Amerikai Egyesült Államok

földrajzi szélesség: 38-42-02N, földrajzi hosszúság: 087-07-47W, magasság: 144 m

Jelenlegi meteorológiai megfigyelések

A jelentés 25 perccel ezelõtt készült, 08:55 UTC
Szélcsend
Hőmérséklet 19°C
Páratartalom 83%
Légköri nyomás 1018 hPa
Látótávolság: 16.1 km
Szórványos felhőzet 5000 lábon
Szakadozott felhőzet 6500 lábon

METAR: KDCY 210855Z AUTO 00000KT 10SM SCT050 BKN065 19/16 A3007 RMK AO2 T01870161

Idő: 05:20 (09:20 UTC)


TAF: hiányzik

Meteorológiai megfigyelések és előrejelzések több, mint 4000 repülőtéren (METAR és TAF jelentéseket).

A térképen piros és sárga pontok jelzik az elérhető meteorológiai állomásokat.

Mozgassa az egeret a pont fölött, hogy megjelenjen az állomás neve.

Azután kattintson az időjárási megfigyelések és előrejelzések megtekintéséhez.

A térkép megváltoztatása: kattintson a fekete keresztel jelölt zöld gombra ráközelítéshez, a vonallal jelölt zöld gombra távolításhoz, vagy a zöld nyilakra a szomszédos térképek eléréséhez.


METAR-TAF: